Time;durP1;ratioP1;P1;durP2;ratioP2;P2;SDS_P1;SDS_P2;PMS_P1;PMS_P2;Temp;Humidity;BMP_temperature;BMP_pressure;BME280_temperature;BME280_humidity;BME280_pressure;Samples;Min_cycle;Max_cycle;Signal;HPM_P1;HPM_P2
2023/07/12 00:01:05;;;;;;;17.77;6.13;;;;;;;18.48;80.22;101019.25;6115355;19;20404;-72
2023/07/12 00:03:11;;;;;;;16.17;5.03;;;;;;;18.53;80.70;101018.94;6114818;19;20023;-73
2023/07/12 00:05:13;;;;;;;17.58;4.82;;;;;;;18.40;81.51;101014.50;6114641;19;20102;-74
2023/07/12 00:07:21;;;;;;;10.88;3.80;;;;;;;18.49;82.47;101014.81;6115961;19;20134;-73
2023/07/12 00:09:29;;;;;;;17.75;5.30;;;;;;;18.48;82.48;101019.25;6115029;19;20023;-74
2023/07/12 00:11:36;;;;;;;18.30;4.20;;;;;;;18.46;82.98;101033.63;6116158;19;20385;-73
2023/07/12 00:13:41;;;;;;;19.52;5.07;;;;;;;18.39;84.31;101039.38;6115017;19;20010;-73
2023/07/12 00:15:47;;;;;;;15.05;5.13;;;;;;;18.34;85.55;101038.00;6114226;19;20043;-74
2023/07/12 00:17:54;;;;;;;13.38;4.55;;;;;;;18.34;85.33;101030.03;6114912;19;20364;-74
2023/07/12 00:19:56;;;;;;;12.55;4.13;;;;;;;18.11;86.36;101023.66;6115216;19;20134;-73
2023/07/12 00:22:02;;;;;;;18.42;5.45;;;;;;;18.13;87.31;100998.66;6112566;19;20492;-73
2023/07/12 00:24:08;;;;;;;16.63;4.55;;;;;;;18.17;86.83;100986.00;6114916;19;20019;-73
2023/07/12 00:26:20;;;;;;;13.60;5.00;;;;;;;18.08;87.87;100976.84;6113116;19;20547;-73
2023/07/12 00:28:27;;;;;;;20.30;4.57;;;;;;;17.92;89.70;100957.59;6114245;19;20010;-74
2023/07/12 00:30:34;;;;;;;15.73;5.28;;;;;;;17.81;89.49;100962.81;6115402;19;20528;-74
2023/07/12 00:32:37;;;;;;;16.17;5.13;;;;;;;17.81;90.21;100968.97;6112949;19;20030;-73
2023/07/12 00:34:42;;;;;;;14.93;4.75;;;;;;;17.89;91.14;100953.34;6114560;19;20044;-74
2023/07/12 00:36:47;;;;;;;14.23;4.65;;;;;;;17.84;91.59;100962.59;6112534;19;20011;-73
2023/07/12 00:38:56;;;;;;;12.05;3.97;;;;;;;17.88;91.37;100948.16;6115127;19;20006;-72
2023/07/12 00:41:18;;;;;;;11.40;4.05;;;;;;;17.63;90.87;100938.31;6112630;19;20042;-72
2023/07/12 00:43:31;;;;;;;12.68;3.90;;;;;;;17.80;92.68;100961.97;6114293;19;20007;-73
2023/07/12 00:45:36;;;;;;;12.23;3.33;;;;;;;17.77;91.85;100970.97;6113590;19;20006;-73
2023/07/12 00:47:43;;;;;;;7.18;3.30;;;;;;;17.75;91.98;100999.47;6113943;19;20105;-72
2023/07/12 00:49:48;;;;;;;9.50;3.35;;;;;;;17.70;91.79;101001.56;6113637;19;20023;-72
2023/07/12 00:52:01;;;;;;;7.45;3.67;;;;;;;17.74;92.27;101011.03;6112551;19;20006;-72
2023/07/12 00:54:13;;;;;;;7.68;3.15;;;;;;;17.62;91.58;101009.22;6111203;19;20645;-72
2023/07/12 00:56:21;;;;;;;9.65;2.85;;;;;;;17.45;92.65;101002.34;6110547;19;20014;-71
2023/07/12 00:58:29;;;;;;;8.98;3.42;;;;;;;17.47;93.24;100986.34;6114552;19;20017;-72
2023/07/12 01:00:34;;;;;;;11.52;3.85;;;;;;;17.39;92.27;100996.63;6112403;19;20040;-72
2023/07/12 01:02:41;;;;;;;11.02;3.10;;;;;;;17.37;93.19;100980.78;6112243;19;20072;-73
2023/07/12 01:04:50;;;;;;;10.68;3.22;;;;;;;17.40;93.66;100993.00;6112447;19;20463;-71
2023/07/12 01:06:56;;;;;;;8.70;3.03;;;;;;;17.44;93.90;100981.22;6112143;19;20361;-73
2023/07/12 01:09:08;;;;;;;9.45;3.20;;;;;;;17.46;94.14;100980.16;6113904;19;20013;-72
2023/07/12 01:11:15;;;;;;;7.65;3.15;;;;;;;17.44;95.17;100979.41;6112404;19;20015;-72
2023/07/12 01:13:31;;;;;;;8.07;3.40;;;;;;;17.39;94.54;101004.59;6113108;19;20006;-73
2023/07/12 01:15:37;;;;;;;12.75;3.67;;;;;;;17.43;94.27;101022.88;6113696;19;20065;-72
2023/07/12 01:17:42;;;;;;;5.45;2.58;;;;;;;17.39;94.53;101041.78;6113176;19;20503;-72
2023/07/12 01:19:48;;;;;;;7.07;3.40;;;;;;;17.40;94.12;101028.38;6113361;19;20482;-72
2023/07/12 01:21:57;;;;;;;8.85;2.65;;;;;;;17.42;94.84;101017.66;6112773;19;20009;-76
2023/07/12 01:24:03;;;;;;;7.93;3.25;;;;;;;17.44;94.14;101032.56;6113553;19;20026;-72
2023/07/12 01:26:19;;;;;;;8.00;3.05;;;;;;;17.40;94.04;100996.50;6112971;19;20027;-72
2023/07/12 01:28:24;;;;;;;7.13;2.58;;;;;;;17.36;94.19;100999.50;6109612;19;20531;-71
2023/07/12 01:30:29;;;;;;;11.85;3.20;;;;;;;17.39;94.80;101017.88;6112928;19;20044;-72
2023/07/12 01:32:35;;;;;;;9.95;2.80;;;;;;;17.44;95.40;101011.28;6113927;19;20023;-72
2023/07/12 01:34:40;;;;;;;7.57;3.25;;;;;;;17.47;95.33;100994.31;6111021;19;20323;-72
2023/07/12 01:36:46;;;;;;;10.23;3.10;;;;;;;17.43;94.99;101011.38;6115805;19;20482;-73
2023/07/12 01:38:57;;;;;;;7.88;3.10;;;;;;;17.45;93.92;101001.50;6114246;19;20451;-72
2023/07/12 01:41:02;;;;;;;10.38;3.15;;;;;;;17.46;93.64;100993.47;6115102;19;20027;-72
2023/07/12 01:43:07;;;;;;;9.35;3.17;;;;;;;17.42;93.83;100993.75;6113509;19;20538;-72
2023/07/12 01:45:13;;;;;;;9.02;3.22;;;;;;;17.39;94.97;101008.09;6113073;19;20022;-73
2023/07/12 01:47:18;;;;;;;9.98;2.92;;;;;;;17.40;94.98;100996.50;6114747;19;20341;-73
2023/07/12 01:49:23;;;;;;;10.27;4.15;;;;;;;17.44;95.97;100974.09;6113042;19;20003;-73
2023/07/12 01:51:33;;;;;;;10.77;3.15;;;;;;;17.46;95.73;100981.97;6111842;19;20014;-73
2023/07/12 01:53:36;;;;;;;12.07;3.17;;;;;;;17.40;95.23;100966.44;6112248;19;20476;-74
2023/07/12 01:55:44;;;;;;;8.68;2.90;;;;;;;17.44;94.55;100962.63;6112726;19;20050;-73
2023/07/12 01:57:49;;;;;;;12.60;3.45;;;;;;;17.37;94.17;100971.97;6111538;19;20022;-71
2023/07/12 01:59:54;;;;;;;8.20;2.67;;;;;;;17.39;94.40;100959.44;6113486;19;20095;-72
2023/07/12 02:01:59;;;;;;;8.60;2.92;;;;;;;17.27;93.44;100958.44;6114170;19;20063;-71
2023/07/12 02:04:04;;;;;;;10.05;2.92;;;;;;;17.23;93.79;100972.88;6113157;19;20035;-71
2023/07/12 02:06:09;;;;;;;8.52;2.83;;;;;;;17.24;93.32;100966.59;6113263;19;20089;-72
2023/07/12 02:08:14;;;;;;;10.50;3.10;;;;;;;17.30;94.31;100967.06;6109929;19;20007;-71
2023/07/12 02:10:19;;;;;;;5.68;2.55;;;;;;;17.33;94.10;100971.31;6111872;19;20078;-72
2023/07/12 02:12:29;;;;;;;9.20;3.13;;;;;;;17.26;94.51;100976.19;6109885;19;20014;-73
2023/07/12 02:14:35;;;;;;;10.15;3.05;;;;;;;17.26;95.15;100978.00;6111598;19;20030;-73
2023/07/12 02:16:40;;;;;;;10.70;3.40;;;;;;;17.25;93.98;100981.59;6109869;19;20118;-73
2023/07/12 02:18:45;;;;;;;9.52;3.58;;;;;;;17.22;93.26;100980.00;6110811;19;20010;-72
2023/07/12 02:20:51;;;;;;;7.45;2.75;;;;;;;17.23;93.93;100978.19;6109952;19;20471;-72
2023/07/12 02:22:56;;;;;;;12.40;3.53;;;;;;;17.26;93.41;100986.81;6112500;19;20010;-72
2023/07/12 02:25:04;;;;;;;8.82;3.42;;;;;;;17.20;93.53;100989.88;6110674;19;20078;-72
2023/07/12 02:27:10;;;;;;;13.80;4.13;;;;;;;17.19;93.57;100987.31;6110915;19;20035;-73
2023/07/12 02:29:17;;;;;;;8.00;3.22;;;;;;;17.18;93.60;100988.28;6113638;19;20024;-72
2023/07/12 02:31:25;;;;;;;13.18;2.90;;;;;;;17.14;94.20;100992.94;6110250;19;20015;-72
2023/07/12 02:33:32;;;;;;;11.85;3.20;;;;;;;17.19;93.84;100988.16;6112624;19;20015;-74
2023/07/12 02:35:41;;;;;;;10.35;3.25;;;;;;;17.14;94.06;100984.09;6109725;19;20023;-75
2023/07/12 02:37:47;;;;;;;11.68;3.40;;;;;;;17.18;94.72;100989.13;6112322;19;20023;-74
2023/07/12 02:39:52;;;;;;;9.23;3.35;;;;;;;17.21;94.28;100982.75;6111636;19;20015;-74
2023/07/12 02:41:55;;;;;;;11.77;4.05;;;;;;;17.24;94.20;100980.72;6110613;19;20026;-74
2023/07/12 02:44:02;;;;;;;9.52;4.00;;;;;;;17.20;93.33;100979.25;6109032;19;20086;-73
2023/07/12 02:46:10;;;;;;;11.88;4.38;;;;;;;17.25;93.87;100976.28;6120022;19;20003;-75
2023/07/12 02:48:15;;;;;;;9.70;3.97;;;;;;;17.31;93.95;100986.50;6120112;19;20556;-72
2023/07/12 02:50:21;;;;;;;11.77;4.80;;;;;;;17.23;94.33;101000.28;6125296;19;20014;-72
2023/07/12 02:52:23;;;;;;;16.10;4.65;;;;;;;17.28;94.70;100997.34;6124954;19;20023;-73
2023/07/12 02:54:28;;;;;;;11.68;4.55;;;;;;;17.28;94.33;100990.22;6124658;19;20014;-72
2023/07/12 02:56:33;;;;;;;10.68;4.50;;;;;;;17.19;95.11;100982.00;6125143;19;20077;-73
2023/07/12 02:58:38;;;;;;;15.93;6.05;;;;;;;17.25;94.60;100984.25;6123545;19;20094;-74
2023/07/12 03:00:41;;;;;;;10.45;4.18;;;;;;;17.23;94.37;100986.16;6123156;19;20030;-74
2023/07/12 03:02:48;;;;;;;;;;;;;;;17.22;95.03;100982.66;6121488;19;20015;-72
2023/07/12 03:04:54;;;;;;;10.95;4.43;;;;;;;17.17;94.46;100990.09;6122612;19;19923;-74
2023/07/12 03:06:56;;;;;;;10.60;4.57;;;;;;;17.18;94.72;100985.63;6117675;19;20523;-73
2023/07/12 03:09:01;;;;;;;12.00;4.40;;;;;;;17.19;95.11;100982.00;6123243;19;20018;-73
2023/07/12 03:11:09;;;;;;;12.30;4.20;;;;;;;17.18;94.21;100988.28;6122567;19;20034;-73
2023/07/12 03:13:15;;;;;;;11.88;4.03;;;;;;;17.11;94.02;100986.03;6124679;19;20006;-73
2023/07/12 03:15:20;;;;;;;13.43;5.57;;;;;;;17.08;93.73;100983.53;6124181;19;20011;-72
2023/07/12 03:17:25;;;;;;;11.00;4.15;;;;;;;17.05;93.43;100975.78;6123894;19;20006;-72
2023/07/12 03:19:33;;;;;;;11.60;4.88;;;;;;;17.04;93.66;100984.72;6122873;19;20018;-72
2023/07/12 03:21:39;;;;;;;7.35;3.78;;;;;;;17.07;94.04;100988.97;6123120;19;20090;-73
2023/07/12 03:23:42;;;;;;;9.75;4.28;;;;;;;16.98;93.80;100982.47;6121589;19;20050;-72
2023/07/12 03:25:47;;;;;;;13.05;3.92;;;;;;;17.01;93.17;100986.69;6123738;19;20497;-72
2023/07/12 03:27:50;;;;;;;10.52;4.50;;;;;;;16.99;93.56;100986.81;6125293;19;20022;-73
2023/07/12 03:29:59;;;;;;;12.15;4.45;;;;;;;16.97;93.47;100983.41;6124690;19;20035;-72
2023/07/12 03:32:05;;;;;;;12.00;5.20;;;;;;;16.97;93.35;100993.19;6124344;19;20022;-72
2023/07/12 03:34:10;;;;;;;14.40;4.07;;;;;;;16.98;93.17;101001.06;6122087;19;20121;-72
2023/07/12 03:36:18;;;;;;;10.40;3.80;;;;;;;17.00;93.39;100991.16;6119496;19;20040;-73
2023/07/12 03:38:24;;;;;;;12.63;4.43;;;;;;;16.95;93.07;100989.75;6120311;19;20475;-72
2023/07/12 03:40:30;;;;;;;7.80;4.10;;;;;;;16.97;93.25;100987.88;6122818;19;20023;-72
2023/07/12 03:42:35;;;;;;;17.20;3.92;;;;;;;16.97;93.70;100987.88;6122376;19;20030;-73
2023/07/12 03:44:40;;;;;;;9.95;3.92;;;;;;;17.07;93.38;100995.13;6122739;19;20074;-74
2023/07/12 03:46:47;;;;;;;13.82;4.45;;;;;;;17.01;93.09;101003.50;6119709;19;20003;-72
2023/07/12 03:48:53;;;;;;;9.93;4.00;;;;;;;17.08;92.77;100999.47;6121022;19;20007;-73
2023/07/12 03:50:55;;;;;;;12.68;4.18;;;;;;;17.02;92.03;100994.56;6120862;19;20041;-73
2023/07/12 03:53:04;;;;;;;16.55;5.68;;;;;;;16.98;92.49;101003.72;6119292;19;20014;-72
2023/07/12 03:55:09;;;;;;;11.40;4.18;;;;;;;16.92;92.72;100998.78;6120998;19;20017;-72
2023/07/12 03:57:14;;;;;;;12.93;5.45;;;;;;;16.88;92.40;100989.31;6114211;19;20342;-72
2023/07/12 03:59:19;;;;;;;13.00;4.40;;;;;;;16.87;92.88;101009.69;6115767;19;20002;-73
2023/07/12 04:01:24;;;;;;;9.02;5.70;;;;;;;16.84;92.62;100999.28;6114141;19;19998;-73
2023/07/12 04:03:27;;;;;;;12.13;4.78;;;;;;;16.84;93.13;101003.72;6115667;19;20058;-73
2023/07/12 04:05:32;;;;;;;11.60;4.82;;;;;;;16.82;93.06;101008.28;6114460;19;20011;-73
2023/07/12 04:07:37;;;;;;;10.63;4.70;;;;;;;16.88;93.11;101015.88;6115940;19;20015;-73
2023/07/12 04:09:42;;;;;;;13.88;4.80;;;;;;;16.91;93.10;101013.00;6113621;19;20463;-74
2023/07/12 04:11:47;;;;;;;11.43;4.60;;;;;;;16.97;92.85;101020.56;6115694;19;20017;-73
2023/07/12 04:13:52;;;;;;;12.77;5.03;;;;;;;17.01;93.17;101008.81;6116251;19;20014;-72
2023/07/12 04:16:00;;;;;;;13.57;5.40;;;;;;;16.98;92.75;101011.69;6113568;19;20019;-72
2023/07/12 04:18:06;;;;;;;12.25;5.68;;;;;;;16.97;92.28;101012.59;6115038;19;20007;-72
2023/07/12 04:20:12;;;;;;;12.50;5.45;;;;;;;16.92;92.45;101011.19;6114724;19;20030;-72
2023/07/12 04:22:18;;;;;;;12.63;4.90;;;;;;;16.98;92.80;101005.50;6107509;19;20098;-71
2023/07/12 04:24:23;;;;;;;15.32;6.07;;;;;;;17.01;92.70;101011.47;6112028;19;20039;-72
2023/07/12 04:26:33;;;;;;;9.57;4.93;;;;;;;17.08;91.84;101018.06;6115330;19;20129;-71
2023/07/12 04:28:43;;;;;;;11.43;5.00;;;;;;;17.09;92.32;101014.47;6113720;19;20531;-74
2023/07/12 04:30:48;;;;;;;14.48;6.03;;;;;;;17.09;91.49;101019.78;6115291;19;20074;-72
2023/07/12 04:32:53;;;;;;;14.63;6.13;;;;;;;17.05;91.56;101018.28;6114513;19;20361;-72
2023/07/12 04:34:58;;;;;;;14.73;5.43;;;;;;;17.05;91.27;101015.63;6113002;19;20014;-72
2023/07/12 04:37:03;;;;;;;13.27;6.35;;;;;;;17.07;92.56;101021.69;6114382;19;20011;-73
2023/07/12 04:39:08;;;;;;;12.75;5.32;;;;;;;17.10;92.55;101039.22;6113973;19;20029;-72
2023/07/12 04:41:13;;;;;;;14.23;5.95;;;;;;;17.00;92.69;101032.78;6113863;19;20018;-72
2023/07/12 04:43:21;;;;;;;14.43;6.20;;;;;;;16.97;93.69;101027.69;6113464;19;20090;-72
2023/07/12 04:45:26;;;;;;;16.77;6.93;;;;;;;16.91;94.28;101038.72;6112629;19;20015;-73
2023/07/12 04:47:32;;;;;;;11.60;5.90;;;;;;;17.03;94.12;101036.09;6113076;19;20086;-73
2023/07/12 04:49:37;;;;;;;15.88;6.97;;;;;;;17.00;94.18;101035.44;6114780;19;20491;-72
2023/07/12 04:51:42;;;;;;;15.23;6.85;;;;;;;17.01;94.23;101037.13;6113875;19;20014;-72
2023/07/12 04:53:48;;;;;;;15.45;6.28;;;;;;;16.97;94.14;101035.66;6113765;19;20007;-72
2023/07/12 04:55:51;;;;;;;13.00;5.30;;;;;;;17.02;94.99;101039.72;6110774;19;20510;-73
2023/07/12 04:57:57;;;;;;;16.23;6.20;;;;;;;17.03;94.79;101036.09;6113749;19;20007;-75
2023/07/12 05:00:05;;;;;;;13.50;5.75;;;;;;;17.07;94.75;101048.22;6113904;19;20018;-73
2023/07/12 05:02:10;;;;;;;12.55;6.75;;;;;;;17.10;94.40;101032.09;6113423;19;20493;-72
2023/07/12 05:04:16;;;;;;;14.77;5.75;;;;;;;17.10;93.93;101040.06;6111820;19;20467;-71
2023/07/12 05:06:21;;;;;;;12.48;5.53;;;;;;;17.15;94.17;101049.56;6112439;19;20035;-71
2023/07/12 05:08:28;;;;;;;15.10;5.68;;;;;;;17.17;93.75;101039.66;6111998;19;20031;-72
2023/07/12 05:10:33;;;;;;;17.73;5.85;;;;;;;17.22;92.77;101037.56;6112877;19;20038;-73
2023/07/12 05:12:39;;;;;;;12.93;5.95;;;;;;;17.22;93.00;101034.91;6113336;19;20062;-71
2023/07/12 05:14:44;;;;;;;16.58;6.20;;;;;;;17.19;93.00;101035.09;6114338;19;20471;-72
2023/07/12 05:16:52;;;;;;;21.42;6.47;;;;;;;17.27;93.36;101044.31;6113524;19;20493;-73
2023/07/12 05:18:58;;;;;;;13.07;5.68;;;;;;;17.33;93.04;101049.19;6113572;19;20537;-72
2023/07/12 05:21:03;;;;;;;12.00;5.90;;;;;;;17.32;92.63;101052.81;6112499;19;20338;-73
2023/07/12 05:23:08;;;;;;;12.70;5.45;;;;;;;17.29;93.11;101046.84;6113892;19;20014;-73
2023/07/12 05:25:11;;;;;;;13.68;5.32;;;;;;;17.32;92.42;101047.50;6113340;19;20022;-72
2023/07/12 05:27:16;;;;;;;;;;;;;;;17.30;92.34;101052.06;6112876;19;20042;-74
2023/07/12 05:29:21;;;;;;;11.80;5.53;;;;;;;17.34;92.43;101052.69;6113163;19;19922;-72
2023/07/12 05:31:26;;;;;;;14.52;6.05;;;;;;;17.40;92.42;101059.41;6113065;19;20090;-73
2023/07/12 05:33:34;;;;;;;13.35;6.07;;;;;;;17.31;92.44;101059.06;6113606;19;20373;-71
2023/07/12 05:35:40;;;;;;;13.27;5.47;;;;;;;17.37;93.06;101063.13;6112213;19;20023;-72
2023/07/12 05:37:45;;;;;;;17.42;6.70;;;;;;;17.33;93.04;101074.91;6111476;19;20073;-73
2023/07/12 05:39:51;;;;;;;18.65;6.65;;;;;;;17.46;94.85;101059.88;6112830;19;20006;-72
2023/07/12 05:41:56;;;;;;;14.02;6.15;;;;;;;17.46;95.30;101054.56;6113673;19;20003;-72
2023/07/12 05:44:01;;;;;;;11.80;5.80;;;;;;;17.43;95.44;101059.22;6113564;19;20021;-72
2023/07/12 05:46:07;;;;;;;17.05;6.55;;;;;;;17.50;95.24;101068.47;6112464;19;20014;-73
2023/07/12 05:48:12;;;;;;;19.55;5.65;;;;;;;17.44;94.90;101067.09;6112327;19;20037;-74
2023/07/12 05:50:22;;;;;;;12.77;5.65;;;;;;;17.45;95.01;101076.75;6109714;19;20015;-71
2023/07/12 05:52:27;;;;;;;15.60;5.30;;;;;;;17.44;95.47;101071.56;6112321;19;20018;-73
2023/07/12 05:54:35;;;;;;;13.10;5.45;;;;;;;17.53;95.02;101076.25;6110732;19;20010;-71
2023/07/12 05:56:40;;;;;;;18.17;5.80;;;;;;;17.49;94.52;101074.75;6111464;19;20094;-74
2023/07/12 05:58:45;;;;;;;11.27;4.43;;;;;;;17.73;94.37;101070.47;6109585;19;20034;-72
2023/07/12 06:00:58;;;;;;;10.52;4.57;;;;;;;18.15;91.74;101081.00;6112259;19;20014;-71
2023/07/12 06:03:04;;;;;;;10.90;4.80;;;;;;;18.48;89.44;101079.63;6113179;19;20009;-71
2023/07/12 06:05:10;;;;;;;14.77;4.70;;;;;;;18.76;87.57;101079.41;6110464;19;20025;-71
2023/07/12 06:07:18;;;;;;;16.60;5.03;;;;;;;18.78;87.28;101080.16;6110026;19;20017;-72
2023/07/12 06:09:23;;;;;;;12.65;4.97;;;;;;;18.92;85.25;101078.31;6109142;19;20063;-70
2023/07/12 06:11:28;;;;;;;9.07;4.45;;;;;;;19.43;84.81;101087.00;6109830;19;20030;-71
2023/07/12 06:13:33;;;;;;;25.20;5.90;;;;;;;18.98;86.26;101084.03;6110310;19;20030;-70
2023/07/12 06:15:41;;;;;;;11.85;4.00;;;;;;;18.76;85.12;101087.41;6109201;19;20007;-71
2023/07/12 06:17:46;;;;;;;16.63;5.10;;;;;;;18.65;85.54;101089.94;6111660;19;20019;-71
2023/07/12 06:19:52;;;;;;;10.82;4.47;;;;;;;18.64;85.41;101086.44;6109886;19;20031;-71
2023/07/12 06:21:57;;;;;;;13.35;4.28;;;;;;;18.77;85.19;101094.44;6112583;19;20373;-71
2023/07/12 06:24:09;;;;;;;13.15;4.22;;;;;;;18.98;82.05;101089.38;6111745;19;20010;-72
2023/07/12 06:26:14;;;;;;;11.68;4.25;;;;;;;18.94;82.37;101087.06;6107850;19;20021;-71
2023/07/12 06:28:19;;;;;;;14.00;4.63;;;;;;;19.18;81.51;101095.94;6112057;19;20353;-72
2023/07/12 06:30:25;;;;;;;9.55;4.30;;;;;;;19.53;79.40;101090.66;6110511;19;20390;-70
2023/07/12 06:32:31;;;;;;;9.98;3.72;;;;;;;19.72;78.20;101100.00;6111831;19;20107;-71
2023/07/12 06:34:36;;;;;;;11.02;3.65;;;;;;;20.34;77.01;101098.84;6113088;19;20010;-71
2023/07/12 06:36:38;;;;;;;10.85;3.78;;;;;;;20.79;75.53;101104.25;6112630;19;20040;-70
2023/07/12 06:38:43;;;;;;;11.15;3.35;;;;;;;21.01;73.78;101098.03;6110672;19;20379;-72
2023/07/12 06:40:51;;;;;;;9.63;3.42;;;;;;;21.07;72.93;101096.72;6113704;19;20018;-74
2023/07/12 06:42:56;;;;;;;10.98;3.42;;;;;;;20.98;71.89;101103.63;6111876;19;20047;-73
2023/07/12 06:45:04;;;;;;;9.35;3.70;;;;;;;21.41;72.16;101093.00;6111966;19;20365;-71
2023/07/12 06:47:09;;;;;;;7.18;3.20;;;;;;;21.68;69.15;101095.22;6111820;19;20010;-72
2023/07/12 06:49:15;;;;;;;9.73;3.85;;;;;;;20.97;72.09;101100.09;6111625;19;20013;-71
2023/07/12 06:51:21;;;;;;;11.20;4.35;;;;;;;21.09;70.53;101102.75;6113042;19;20014;-71
2023/07/12 06:53:26;;;;;;;10.45;3.53;;;;;;;21.48;69.79;101104.03;6113381;19;20031;-71
2023/07/12 06:55:37;;;;;;;7.63;3.60;;;;;;;20.86;69.44;101105.47;6114376;19;20010;-71
2023/07/12 06:57:45;;;;;;;9.95;3.67;;;;;;;21.14;68.85;101111.25;6113111;19;20018;-72
2023/07/12 06:59:51;;;;;;;8.00;2.97;;;;;;;20.81;69.87;101108.50;6115232;19;20010;-70
2023/07/12 07:01:56;;;;;;;12.80;4.45;;;;;;;20.13;71.49;101120.88;6112957;19;20010;-70
2023/07/12 07:04:03;;;;;;;8.52;3.25;;;;;;;21.02;70.16;101121.97;6114065;19;20046;-71
2023/07/12 07:06:08;;;;;;;8.60;3.72;;;;;;;21.47;67.95;101118.41;6111539;19;20397;-71
2023/07/12 07:08:13;;;;;;;9.20;3.13;;;;;;;22.18;66.69;101125.88;6107944;19;20025;-70
2023/07/12 07:10:19;;;;;;;9.15;3.88;;;;;;;21.25;68.81;101129.97;6110239;19;20495;-71
2023/07/12 07:12:24;;;;;;;9.45;3.20;;;;;;;20.48;70.47;101124.47;6112290;19;20031;-72
2023/07/12 07:14:32;;;;;;;10.50;3.40;;;;;;;20.52;71.01;101134.78;6112033;19;20010;-72
2023/07/12 07:16:37;;;;;;;12.25;3.55;;;;;;;20.56;70.69;101136.31;6110969;19;20452;-71
2023/07/12 07:18:42;;;;;;;7.72;3.72;;;;;;;20.47;71.43;101133.44;6109844;19;20047;-72
2023/07/12 07:20:48;;;;;;;11.88;4.03;;;;;;;20.15;71.94;101142.97;6113158;19;20062;-71
2023/07/12 07:22:53;;;;;;;11.40;3.63;;;;;;;19.86;72.72;101158.50;6110973;19;20044;-73
2023/07/12 07:24:58;;;;;;;7.00;3.47;;;;;;;19.62;72.62;101152.28;6108822;19;20439;-74
2023/07/12 07:27:08;;;;;;;11.45;3.83;;;;;;;20.88;70.47;101153.41;6111603;19;20479;-72
2023/07/12 07:29:13;;;;;;;7.22;3.58;;;;;;;20.81;69.99;101145.03;6111021;19;20011;-72
2023/07/12 07:31:21;;;;;;;10.27;3.90;;;;;;;21.29;68.65;101144.75;6112651;19;20006;-72
2023/07/12 07:33:27;;;;;;;9.38;3.17;;;;;;;21.06;69.03;101162.63;6117214;19;20026;-71
2023/07/12 07:35:32;;;;;;;9.57;2.97;;;;;;;20.81;69.64;101158.41;6117060;19;20019;-70
2023/07/12 07:37:37;;;;;;;9.38;3.40;;;;;;;20.12;71.35;101167.22;6113997;19;20463;-73
2023/07/12 07:39:42;;;;;;;11.65;3.65;;;;;;;19.99;71.28;101171.78;6117054;19;20491;-72
2023/07/12 07:41:48;;;;;;;9.65;3.50;;;;;;;19.88;71.82;101174.34;6115265;19;20097;-72
2023/07/12 07:43:53;;;;;;;9.85;3.33;;;;;;;20.13;70.97;101173.38;6117613;19;20051;-73
2023/07/12 07:45:58;;;;;;;7.95;3.05;;;;;;;21.09;68.62;101173.09;6114719;19;20376;-70
2023/07/12 07:48:06;;;;;;;9.15;3.47;;;;;;;20.93;67.05;101177.94;6116245;19;20381;-72
2023/07/12 07:50:11;;;;;;;15.25;3.50;;;;;;;21.30;66.93;101178.56;6116022;19;20071;-72
2023/07/12 07:52:16;;;;;;;9.43;2.85;;;;;;;21.04;66.52;101175.28;6112621;19;20027;-70
2023/07/12 07:54:21;;;;;;;8.27;2.95;;;;;;;20.72;68.51;101175.13;6112546;19;20024;-72
2023/07/12 07:56:24;;;;;;;12.48;3.70;;;;;;;20.51;69.27;101188.28;6115270;19;20038;-73
2023/07/12 07:58:29;;;;;;;8.18;3.28;;;;;;;21.89;66.68;101196.91;6112756;19;20097;-71
2023/07/12 08:00:34;;;;;;;9.02;3.42;;;;;;;22.25;63.32;101194.88;6115963;19;20074;-70
2023/07/12 08:02:40;;;;;;;11.50;3.08;;;;;;;22.91;63.64;101193.75;6116504;19;20467;-70
2023/07/12 08:04:47;;;;;;;12.05;3.00;;;;;;;22.38;63.62;101204.53;6114240;19;20022;-71
2023/07/12 08:06:53;;;;;;;8.35;2.88;;;;;;;21.73;65.71;101193.81;6116244;19;20349;-71
2023/07/12 08:08:58;;;;;;;13.43;3.10;;;;;;;21.77;64.61;101205.94;6116350;19;20015;-72
2023/07/12 08:11:07;;;;;;;10.27;3.45;;;;;;;21.34;66.37;101204.06;6115617;19;20023;-70
2023/07/12 08:13:12;;;;;;;7.93;3.13;;;;;;;21.33;66.08;101207.72;6114907;19;20343;-70
2023/07/12 08:15:17;;;;;;;5.97;2.67;;;;;;;21.10;68.08;101214.88;6116154;19;20015;-72
2023/07/12 08:17:23;;;;;;;8.73;3.28;;;;;;;20.86;68.09;101215.00;6115805;19;20476;-72
2023/07/12 08:19:28;;;;;;;7.88;2.67;;;;;;;20.75;68.01;101217.66;6115141;19;20507;-70
2023/07/12 08:21:36;;;;;;;9.80;3.55;;;;;;;20.13;70.46;101216.94;6115846;19;20002;-72
2023/07/12 08:23:41;;;;;;;9.38;3.30;;;;;;;20.35;69.03;101212.63;6114195;19;20062;-72
2023/07/12 08:25:46;;;;;;;7.97;2.90;;;;;;;20.27;69.72;101217.72;6113734;19;20124;-71
2023/07/12 08:27:51;;;;;;;6.82;3.00;;;;;;;19.72;71.73;101228.84;6113488;19;20053;-70
2023/07/12 08:29:58;;;;;;;6.43;3.08;;;;;;;19.69;72.81;101229.03;6116162;19;20403;-72
2023/07/12 08:32:04;;;;;;;9.52;3.30;;;;;;;19.88;72.08;101230.38;6115902;19;20018;-70
2023/07/12 08:34:11;;;;;;;9.90;3.00;;;;;;;20.03;72.17;101234.56;6116773;19;20482;-71
2023/07/12 08:36:16;;;;;;;11.05;3.25;;;;;;;21.36;69.04;101234.19;6110922;19;20373;-72
2023/07/12 08:38:24;;;;;;;9.82;3.20;;;;;;;20.89;68.11;101233.44;6114625;19;20371;-70
2023/07/12 08:40:31;;;;;;;9.70;3.30;;;;;;;20.47;69.13;101235.75;6113670;19;20042;-71
2023/07/12 08:42:39;;;;;;;8.05;4.05;;;;;;;19.91;70.67;101244.34;6112541;19;20039;-72
2023/07/12 08:44:44;;;;;;;6.47;3.28;;;;;;;20.96;68.70;101255.22;6113410;19;20462;-71
2023/07/12 08:46:53;;;;;;;6.18;2.80;;;;;;;20.40;70.15;101250.50;6114762;19;20128;-71
2023/07/12 08:49:03;;;;;;;8.18;3.20;;;;;;;20.52;70.60;101241.59;6116121;19;20017;-71
2023/07/12 08:51:16;;;;;;;8.40;2.90;;;;;;;20.72;69.93;101244.56;6117227;19;20007;-72
2023/07/12 08:53:29;;;;;;;8.82;3.33;;;;;;;20.85;69.59;101245.31;6114108;19;20390;-71
2023/07/12 08:55:37;;;;;;;9.27;3.60;;;;;;;21.36;67.15;101244.88;6114337;19;20007;-72
2023/07/12 08:57:43;;;;;;;6.43;2.95;;;;;;;21.42;67.64;101248.94;6114995;19;20035;-74
2023/07/12 08:59:54;;;;;;;7.13;3.03;;;;;;;22.85;63.58;101247.84;6115602;19;20011;-73
2023/07/12 09:02:00;;;;;;;11.65;3.80;;;;;;;22.83;60.92;101253.34;6115276;19;20022;-70
2023/07/12 09:04:25;;;;;;;10.20;3.13;;;;;;;23.31;59.66;101249.25;6114082;19;20015;-70
2023/07/12 09:06:33;;;;;;;5.55;2.45;;;;;;;23.13;60.74;101262.44;6110388;19;20010;-70
2023/07/12 09:08:45;;;;;;;7.15;2.92;;;;;;;22.18;62.14;101257.91;6113583;19;20063;-71
2023/07/12 09:10:56;;;;;;;9.20;2.90;;;;;;;21.43;64.28;101254.16;6115154;19;20025;-71
2023/07/12 09:13:03;;;;;;;9.88;3.75;;;;;;;21.46;65.01;101261.94;6114825;19;20013;-71
2023/07/12 09:15:14;;;;;;;8.05;3.00;;;;;;;21.38;65.36;101264.38;6114211;19;20034;-70
2023/07/12 09:17:25;;;;;;;7.70;3.10;;;;;;;21.09;66.28;101263.97;6113494;19;20035;-71
2023/07/12 09:19:34;;;;;;;8.27;3.10;;;;;;;21.49;65.58;101260.84;6114417;19;20018;-70
2023/07/12 09:21:40;;;;;;;10.45;3.70;;;;;;;22.44;61.45;101262.94;6113970;19;20017;-71
2023/07/12 09:23:53;;;;;;;7.45;3.47;;;;;;;23.37;58.14;101259.44;6113384;19;20012;-71
2023/07/12 09:25:58;;;;;;;9.18;3.17;;;;;;;23.23;59.61;101266.84;6115226;19;20010;-72
2023/07/12 09:28:04;;;;;;;8.63;3.78;;;;;;;22.71;59.98;101265.94;6112791;19;20026;-73
2023/07/12 09:30:10;;;;;;;6.35;2.97;;;;;;;22.62;60.25;101264.06;6115435;19;20023;-71
2023/07/12 09:32:31;;;;;;;9.15;3.08;;;;;;;22.31;60.62;101266.63;6108697;19;20105;-70
2023/07/12 09:34:40;;;;;;;6.80;2.80;;;;;;;22.04;62.31;101277.78;6113184;19;20014;-72
2023/07/12 09:36:48;;;;;;;7.18;3.08;;;;;;;21.43;63.04;101275.56;6114675;19;20014;-71
2023/07/12 09:39:02;;;;;;;6.90;2.80;;;;;;;21.65;62.78;101282.69;6114638;19;20491;-72
2023/07/12 09:41:13;;;;;;;4.50;2.53;;;;;;;21.18;64.74;101273.06;6113404;19;20322;-70
2023/07/12 09:43:21;;;;;;;5.07;2.70;;;;;;;21.98;63.26;101280.09;6114894;19;20011;-73
2023/07/12 09:45:33;;;;;;;8.18;2.67;;;;;;;22.52;61.86;101265.81;6114580;19;20014;-71